sensor_id;sensor_type;location;lat;lon;timestamp;P1;durP1;ratioP1;P2;durP2;ratioP2
72493;SDS011;60520;49.182;-0.348;2023-05-20T00:00:39;5.72;;;1.83;;
72493;SDS011;60520;49.182;-0.348;2023-05-20T00:03:07;5.85;;;2.17;;
72493;SDS011;60520;49.182;-0.348;2023-05-20T00:05:34;5.45;;;2.10;;
72493;SDS011;60520;49.182;-0.348;2023-05-20T00:08:01;6.68;;;2.00;;
72493;SDS011;60520;49.182;-0.348;2023-05-20T00:10:31;5.68;;;2.00;;
72493;SDS011;60520;49.182;-0.348;2023-05-20T00:12:58;5.00;;;1.90;;
72493;SDS011;60520;49.182;-0.348;2023-05-20T00:15:27;6.82;;;2.30;;
72493;SDS011;60520;49.182;-0.348;2023-05-20T00:17:54;4.47;;;2.15;;
72493;SDS011;60520;49.182;-0.348;2023-05-20T00:20:21;5.65;;;2.42;;
72493;SDS011;60520;49.182;-0.348;2023-05-20T00:22:49;5.88;;;1.83;;
72493;SDS011;60520;49.182;-0.348;2023-05-20T00:25:16;6.28;;;2.08;;
72493;SDS011;60520;49.182;-0.348;2023-05-20T00:27:43;5.47;;;2.10;;
72493;SDS011;60520;49.182;-0.348;2023-05-20T00:30:11;6.45;;;1.90;;
72493;SDS011;60520;49.182;-0.348;2023-05-20T00:32:40;6.70;;;2.05;;
72493;SDS011;60520;49.182;-0.348;2023-05-20T00:35:07;5.57;;;2.10;;
72493;SDS011;60520;49.182;-0.348;2023-05-20T00:37:35;6.57;;;2.03;;
72493;SDS011;60520;49.182;-0.348;2023-05-20T00:40:02;4.90;;;1.85;;
72493;SDS011;60520;49.182;-0.348;2023-05-20T00:42:29;4.30;;;1.95;;
72493;SDS011;60520;49.182;-0.348;2023-05-20T00:44:56;5.85;;;1.98;;
72493;SDS011;60520;49.182;-0.348;2023-05-20T00:47:24;4.10;;;1.85;;
72493;SDS011;60520;49.182;-0.348;2023-05-20T00:49:54;5.68;;;2.15;;
72493;SDS011;60520;49.182;-0.348;2023-05-20T00:52:21;6.28;;;2.50;;
72493;SDS011;60520;49.182;-0.348;2023-05-20T00:54:48;3.92;;;1.77;;
72493;SDS011;60520;49.182;-0.348;2023-05-20T00:57:16;7.18;;;2.08;;
72493;SDS011;60520;49.182;-0.348;2023-05-20T00:59:43;4.65;;;1.85;;
72493;SDS011;60520;49.182;-0.348;2023-05-20T01:02:10;4.75;;;1.83;;
72493;SDS011;60520;49.182;-0.348;2023-05-20T01:04:37;5.22;;;1.95;;
72493;SDS011;60520;49.182;-0.348;2023-05-20T01:07:07;5.93;;;2.10;;
72493;SDS011;60520;49.182;-0.348;2023-05-20T01:09:34;2.78;;;1.55;;
72493;SDS011;60520;49.182;-0.348;2023-05-20T01:12:02;7.80;;;2.33;;
72493;SDS011;60520;49.182;-0.348;2023-05-20T01:14:31;6.72;;;2.00;;
72493;SDS011;60520;49.182;-0.348;2023-05-20T01:17:00;4.68;;;1.63;;
72493;SDS011;60520;49.182;-0.348;2023-05-20T01:19:34;3.45;;;1.88;;
72493;SDS011;60520;49.182;-0.348;2023-05-20T01:22:01;4.85;;;1.88;;
72493;SDS011;60520;49.182;-0.348;2023-05-20T01:24:30;7.47;;;2.38;;
72493;SDS011;60520;49.182;-0.348;2023-05-20T01:26:58;4.65;;;1.90;;
72493;SDS011;60520;49.182;-0.348;2023-05-20T01:29:25;6.35;;;2.25;;
72493;SDS011;60520;49.182;-0.348;2023-05-20T01:31:52;5.03;;;2.15;;
72493;SDS011;60520;49.182;-0.348;2023-05-20T01:34:20;5.00;;;2.05;;
72493;SDS011;60520;49.182;-0.348;2023-05-20T01:36:47;6.65;;;2.58;;
72493;SDS011;60520;49.182;-0.348;2023-05-20T01:39:15;4.25;;;1.95;;
72493;SDS011;60520;49.182;-0.348;2023-05-20T01:41:44;4.75;;;2.13;;
72493;SDS011;60520;49.182;-0.348;2023-05-20T01:44:11;5.32;;;2.38;;
72493;SDS011;60520;49.182;-0.348;2023-05-20T01:46:39;4.03;;;1.80;;
72493;SDS011;60520;49.182;-0.348;2023-05-20T01:49:06;5.30;;;1.90;;
72493;SDS011;60520;49.182;-0.348;2023-05-20T01:51:33;6.20;;;2.58;;
72493;SDS011;60520;49.182;-0.348;2023-05-20T01:54:00;4.13;;;1.90;;
72493;SDS011;60520;49.182;-0.348;2023-05-20T01:56:28;6.00;;;2.08;;
72493;SDS011;60520;49.182;-0.348;2023-05-20T01:58:56;4.68;;;1.98;;
72493;SDS011;60520;49.182;-0.348;2023-05-20T02:01:23;6.40;;;2.22;;
72493;SDS011;60520;49.182;-0.348;2023-05-20T02:03:50;5.13;;;2.00;;
72493;SDS011;60520;49.182;-0.348;2023-05-20T02:06:17;6.40;;;2.22;;
72493;SDS011;60520;49.182;-0.348;2023-05-20T02:08:44;5.90;;;2.00;;
72493;SDS011;60520;49.182;-0.348;2023-05-20T02:11:12;4.97;;;2.00;;
72493;SDS011;60520;49.182;-0.348;2023-05-20T02:13:39;5.72;;;2.17;;
72493;SDS011;60520;49.182;-0.348;2023-05-20T02:16:07;4.63;;;2.00;;
72493;SDS011;60520;49.182;-0.348;2023-05-20T02:18:34;4.75;;;1.83;;
72493;SDS011;60520;49.182;-0.348;2023-05-20T02:21:02;6.95;;;2.20;;
72493;SDS011;60520;49.182;-0.348;2023-05-20T02:23:29;8.88;;;2.58;;
72493;SDS011;60520;49.182;-0.348;2023-05-20T02:25:56;5.75;;;2.05;;
72493;SDS011;60520;49.182;-0.348;2023-05-20T02:28:23;4.53;;;1.83;;
72493;SDS011;60520;49.182;-0.348;2023-05-20T02:30:51;4.78;;;1.90;;
72493;SDS011;60520;49.182;-0.348;2023-05-20T02:33:19;6.57;;;2.10;;
72493;SDS011;60520;49.182;-0.348;2023-05-20T02:35:46;4.22;;;1.85;;
72493;SDS011;60520;49.182;-0.348;2023-05-20T02:38:13;6.50;;;1.98;;
72493;SDS011;60520;49.182;-0.348;2023-05-20T02:40:42;5.40;;;1.92;;
72493;SDS011;60520;49.182;-0.348;2023-05-20T02:43:09;4.30;;;2.00;;
72493;SDS011;60520;49.182;-0.348;2023-05-20T02:45:37;8.00;;;2.40;;
72493;SDS011;60520;49.182;-0.348;2023-05-20T02:48:04;5.85;;;2.10;;
72493;SDS011;60520;49.182;-0.348;2023-05-20T02:50:32;6.95;;;2.40;;
72493;SDS011;60520;49.182;-0.348;2023-05-20T02:52:59;4.70;;;1.80;;
72493;SDS011;60520;49.182;-0.348;2023-05-20T02:55:26;5.38;;;1.98;;
72493;SDS011;60520;49.182;-0.348;2023-05-20T02:57:53;5.60;;;2.00;;
72493;SDS011;60520;49.182;-0.348;2023-05-20T03:00:21;6.63;;;1.98;;
72493;SDS011;60520;49.182;-0.348;2023-05-20T03:02:48;6.97;;;2.38;;
72493;SDS011;60520;49.182;-0.348;2023-05-20T03:05:15;5.50;;;1.98;;
72493;SDS011;60520;49.182;-0.348;2023-05-20T03:07:44;4.68;;;1.90;;
72493;SDS011;60520;49.182;-0.348;2023-05-20T03:10:12;6.78;;;2.05;;
72493;SDS011;60520;49.182;-0.348;2023-05-20T03:12:40;5.95;;;2.10;;
72493;SDS011;60520;49.182;-0.348;2023-05-20T03:15:07;6.35;;;2.25;;
72493;SDS011;60520;49.182;-0.348;2023-05-20T03:17:34;5.15;;;2.10;;
72493;SDS011;60520;49.182;-0.348;2023-05-20T03:20:01;5.13;;;1.77;;
72493;SDS011;60520;49.182;-0.348;2023-05-20T03:22:32;6.97;;;2.40;;
72493;SDS011;60520;49.182;-0.348;2023-05-20T03:25:00;5.57;;;2.00;;
72493;SDS011;60520;49.182;-0.348;2023-05-20T03:27:28;8.30;;;2.15;;
72493;SDS011;60520;49.182;-0.348;2023-05-20T03:29:55;7.20;;;2.03;;
72493;SDS011;60520;49.182;-0.348;2023-05-20T03:32:23;5.95;;;2.28;;
72493;SDS011;60520;49.182;-0.348;2023-05-20T03:34:50;5.32;;;2.00;;
72493;SDS011;60520;49.182;-0.348;2023-05-20T03:37:18;4.55;;;1.90;;
72493;SDS011;60520;49.182;-0.348;2023-05-20T03:39:45;4.50;;;2.00;;
72493;SDS011;60520;49.182;-0.348;2023-05-20T03:42:14;5.90;;;2.17;;
72493;SDS011;60520;49.182;-0.348;2023-05-20T03:44:41;4.45;;;2.00;;
72493;SDS011;60520;49.182;-0.348;2023-05-20T03:47:08;3.92;;;1.85;;
72493;SDS011;60520;49.182;-0.348;2023-05-20T03:49:35;4.97;;;1.98;;
72493;SDS011;60520;49.182;-0.348;2023-05-20T03:52:03;5.43;;;2.30;;
72493;SDS011;60520;49.182;-0.348;2023-05-20T03:54:30;4.03;;;2.00;;
72493;SDS011;60520;49.182;-0.348;2023-05-20T03:56:59;4.97;;;2.03;;
72493;SDS011;60520;49.182;-0.348;2023-05-20T03:59:28;5.05;;;2.00;;
72493;SDS011;60520;49.182;-0.348;2023-05-20T04:01:55;7.40;;;2.45;;
72493;SDS011;60520;49.182;-0.348;2023-05-20T04:04:22;6.78;;;2.08;;
72493;SDS011;60520;49.182;-0.348;2023-05-20T04:06:49;6.22;;;2.20;;
72493;SDS011;60520;49.182;-0.348;2023-05-20T04:09:18;6.50;;;2.40;;
72493;SDS011;60520;49.182;-0.348;2023-05-20T04:11:45;5.70;;;2.13;;
72493;SDS011;60520;49.182;-0.348;2023-05-20T04:14:12;5.65;;;2.05;;
72493;SDS011;60520;49.182;-0.348;2023-05-20T04:16:41;5.80;;;2.30;;
72493;SDS011;60520;49.182;-0.348;2023-05-20T04:19:08;8.52;;;2.20;;
72493;SDS011;60520;49.182;-0.348;2023-05-20T04:21:36;6.85;;;2.10;;
72493;SDS011;60520;49.182;-0.348;2023-05-20T04:24:03;6.55;;;2.50;;
72493;SDS011;60520;49.182;-0.348;2023-05-20T04:26:31;5.60;;;1.98;;
72493;SDS011;60520;49.182;-0.348;2023-05-20T04:28:59;7.00;;;2.20;;
72493;SDS011;60520;49.182;-0.348;2023-05-20T04:31:28;4.85;;;2.22;;
72493;SDS011;60520;49.182;-0.348;2023-05-20T04:33:57;5.15;;;2.13;;
72493;SDS011;60520;49.182;-0.348;2023-05-20T04:36:24;5.47;;;2.20;;
72493;SDS011;60520;49.182;-0.348;2023-05-20T04:38:52;3.78;;;1.92;;
72493;SDS011;60520;49.182;-0.348;2023-05-20T04:41:19;6.72;;;2.20;;
72493;SDS011;60520;49.182;-0.348;2023-05-20T04:43:46;7.97;;;2.50;;
72493;SDS011;60520;49.182;-0.348;2023-05-20T04:46:14;5.10;;;2.17;;
72493;SDS011;60520;49.182;-0.348;2023-05-20T04:48:41;6.32;;;2.10;;
72493;SDS011;60520;49.182;-0.348;2023-05-20T04:51:10;7.32;;;2.10;;
72493;SDS011;60520;49.182;-0.348;2023-05-20T04:53:37;7.68;;;2.33;;
72493;SDS011;60520;49.182;-0.348;2023-05-20T04:56:04;6.20;;;2.17;;
72493;SDS011;60520;49.182;-0.348;2023-05-20T04:58:32;7.18;;;2.28;;
72493;SDS011;60520;49.182;-0.348;2023-05-20T05:00:59;3.70;;;1.83;;
72493;SDS011;60520;49.182;-0.348;2023-05-20T05:03:26;7.85;;;2.53;;
72493;SDS011;60520;49.182;-0.348;2023-05-20T05:05:54;6.18;;;2.03;;
72493;SDS011;60520;49.182;-0.348;2023-05-20T05:08:23;6.68;;;2.35;;
72493;SDS011;60520;49.182;-0.348;2023-05-20T05:10:50;5.70;;;2.22;;
72493;SDS011;60520;49.182;-0.348;2023-05-20T05:13:18;6.20;;;1.98;;
72493;SDS011;60520;49.182;-0.348;2023-05-20T05:15:45;5.05;;;2.08;;
72493;SDS011;60520;49.182;-0.348;2023-05-20T05:18:12;4.97;;;2.03;;
72493;SDS011;60520;49.182;-0.348;2023-05-20T05:20:42;6.72;;;2.22;;
72493;SDS011;60520;49.182;-0.348;2023-05-20T05:23:09;8.18;;;2.35;;
72493;SDS011;60520;49.182;-0.348;2023-05-20T05:25:38;9.23;;;2.08;;
72493;SDS011;60520;49.182;-0.348;2023-05-20T05:28:05;5.93;;;2.00;;
72493;SDS011;60520;49.182;-0.348;2023-05-20T05:30:32;4.82;;;2.10;;
72493;SDS011;60520;49.182;-0.348;2023-05-20T05:32:59;5.30;;;2.00;;
72493;SDS011;60520;49.182;-0.348;2023-05-20T05:35:26;5.10;;;2.17;;
72493;SDS011;60520;49.182;-0.348;2023-05-20T05:37:53;5.28;;;2.10;;
72493;SDS011;60520;49.182;-0.348;2023-05-20T05:40:20;4.20;;;1.85;;
72493;SDS011;60520;49.182;-0.348;2023-05-20T05:42:49;5.30;;;2.10;;
72493;SDS011;60520;49.182;-0.348;2023-05-20T05:45:16;4.95;;;1.85;;
72493;SDS011;60520;49.182;-0.348;2023-05-20T05:47:43;4.75;;;1.95;;
72493;SDS011;60520;49.182;-0.348;2023-05-20T05:50:10;5.88;;;2.05;;
72493;SDS011;60520;49.182;-0.348;2023-05-20T05:52:37;5.38;;;2.17;;
72493;SDS011;60520;49.182;-0.348;2023-05-20T05:55:05;4.45;;;2.22;;
72493;SDS011;60520;49.182;-0.348;2023-05-20T05:57:32;7.35;;;2.35;;
72493;SDS011;60520;49.182;-0.348;2023-05-20T06:00:01;5.63;;;2.28;;
72493;SDS011;60520;49.182;-0.348;2023-05-20T06:02:29;6.13;;;2.10;;
72493;SDS011;60520;49.182;-0.348;2023-05-20T06:05:00;5.05;;;2.08;;
72493;SDS011;60520;49.182;-0.348;2023-05-20T06:07:27;6.40;;;2.30;;
72493;SDS011;60520;49.182;-0.348;2023-05-20T06:09:54;5.95;;;2.25;;
72493;SDS011;60520;49.182;-0.348;2023-05-20T06:12:21;5.88;;;2.33;;
72493;SDS011;60520;49.182;-0.348;2023-05-20T06:14:48;7.18;;;2.28;;
72493;SDS011;60520;49.182;-0.348;2023-05-20T06:17:17;8.80;;;2.22;;
72493;SDS011;60520;49.182;-0.348;2023-05-20T06:19:44;4.82;;;2.00;;
72493;SDS011;60520;49.182;-0.348;2023-05-20T06:22:11;5.75;;;2.17;;
72493;SDS011;60520;49.182;-0.348;2023-05-20T06:24:38;5.97;;;2.40;;
72493;SDS011;60520;49.182;-0.348;2023-05-20T06:27:05;6.10;;;2.50;;
72493;SDS011;60520;49.182;-0.348;2023-05-20T06:29:32;6.97;;;2.53;;
72493;SDS011;60520;49.182;-0.348;2023-05-20T06:32:00;6.45;;;2.47;;
72493;SDS011;60520;49.182;-0.348;2023-05-20T06:34:28;7.13;;;2.47;;
72493;SDS011;60520;49.182;-0.348;2023-05-20T06:36:55;4.85;;;2.08;;
72493;SDS011;60520;49.182;-0.348;2023-05-20T06:39:22;8.95;;;2.40;;
72493;SDS011;60520;49.182;-0.348;2023-05-20T06:41:49;7.55;;;2.28;;
72493;SDS011;60520;49.182;-0.348;2023-05-20T06:44:17;4.82;;;2.33;;
72493;SDS011;60520;49.182;-0.348;2023-05-20T06:46:44;4.13;;;1.80;;
72493;SDS011;60520;49.182;-0.348;2023-05-20T06:49:11;7.07;;;2.10;;
72493;SDS011;60520;49.182;-0.348;2023-05-20T06:51:40;4.15;;;2.03;;
72493;SDS011;60520;49.182;-0.348;2023-05-20T06:54:08;7.18;;;2.40;;
72493;SDS011;60520;49.182;-0.348;2023-05-20T06:56:35;5.15;;;2.42;;
72493;SDS011;60520;49.182;-0.348;2023-05-20T06:59:02;6.93;;;2.55;;
72493;SDS011;60520;49.182;-0.348;2023-05-20T07:01:29;6.05;;;2.35;;
72493;SDS011;60520;49.182;-0.348;2023-05-20T07:03:56;8.07;;;2.65;;
72493;SDS011;60520;49.182;-0.348;2023-05-20T07:06:23;5.47;;;2.10;;
72493;SDS011;60520;49.182;-0.348;2023-05-20T07:08:52;6.85;;;2.20;;
72493;SDS011;60520;49.182;-0.348;2023-05-20T07:11:19;7.00;;;2.10;;
72493;SDS011;60520;49.182;-0.348;2023-05-20T07:13:46;7.65;;;2.30;;
72493;SDS011;60520;49.182;-0.348;2023-05-20T07:16:13;6.40;;;2.58;;
72493;SDS011;60520;49.182;-0.348;2023-05-20T07:18:40;6.00;;;2.50;;
72493;SDS011;60520;49.182;-0.348;2023-05-20T07:21:07;7.18;;;2.83;;
72493;SDS011;60520;49.182;-0.348;2023-05-20T07:23:34;9.07;;;3.08;;
72493;SDS011;60520;49.182;-0.348;2023-05-20T07:26:03;7.38;;;2.63;;
72493;SDS011;60520;49.182;-0.348;2023-05-20T07:28:30;7.05;;;2.55;;
72493;SDS011;60520;49.182;-0.348;2023-05-20T07:30:57;6.00;;;2.10;;
72493;SDS011;60520;49.182;-0.348;2023-05-20T07:33:24;5.65;;;2.20;;
72493;SDS011;60520;49.182;-0.348;2023-05-20T07:35:51;6.75;;;2.55;;
72493;SDS011;60520;49.182;-0.348;2023-05-20T07:38:18;9.55;;;3.20;;
72493;SDS011;60520;49.182;-0.348;2023-05-20T07:40:45;14.38;;;3.58;;
72493;SDS011;60520;49.182;-0.348;2023-05-20T07:43:14;15.43;;;3.00;;
72493;SDS011;60520;49.182;-0.348;2023-05-20T07:45:41;10.77;;;3.38;;
72493;SDS011;60520;49.182;-0.348;2023-05-20T07:48:08;8.35;;;3.10;;
72493;SDS011;60520;49.182;-0.348;2023-05-20T07:50:36;9.40;;;3.08;;
72493;SDS011;60520;49.182;-0.348;2023-05-20T07:53:04;11.45;;;2.95;;
72493;SDS011;60520;49.182;-0.348;2023-05-20T07:55:32;9.95;;;2.83;;
72493;SDS011;60520;49.182;-0.348;2023-05-20T07:58:00;11.43;;;3.40;;
72493;SDS011;60520;49.182;-0.348;2023-05-20T08:00:28;9.13;;;2.97;;
72493;SDS011;60520;49.182;-0.348;2023-05-20T08:02:55;8.23;;;3.08;;
72493;SDS011;60520;49.182;-0.348;2023-05-20T08:05:22;10.30;;;2.92;;
72493;SDS011;60520;49.182;-0.348;2023-05-20T08:07:49;12.65;;;2.90;;
72493;SDS011;60520;49.182;-0.348;2023-05-20T08:10:17;11.70;;;2.83;;
72493;SDS011;60520;49.182;-0.348;2023-05-20T08:12:45;13.80;;;3.03;;
72493;SDS011;60520;49.182;-0.348;2023-05-20T08:15:12;11.20;;;2.95;;
72493;SDS011;60520;49.182;-0.348;2023-05-20T08:17:40;9.20;;;2.80;;
72493;SDS011;60520;49.182;-0.348;2023-05-20T08:20:08;9.43;;;3.65;;
72493;SDS011;60520;49.182;-0.348;2023-05-20T08:22:36;9.43;;;3.30;;
72493;SDS011;60520;49.182;-0.348;2023-05-20T08:25:06;12.40;;;3.75;;
72493;SDS011;60520;49.182;-0.348;2023-05-20T08:27:34;11.85;;;3.65;;
72493;SDS011;60520;49.182;-0.348;2023-05-20T08:30:01;10.80;;;2.88;;
72493;SDS011;60520;49.182;-0.348;2023-05-20T08:32:28;9.20;;;3.20;;
72493;SDS011;60520;49.182;-0.348;2023-05-20T08:34:57;12.85;;;3.40;;
72493;SDS011;60520;49.182;-0.348;2023-05-20T08:37:25;8.02;;;3.30;;
72493;SDS011;60520;49.182;-0.348;2023-05-20T08:39:53;12.73;;;3.67;;
72493;SDS011;60520;49.182;-0.348;2023-05-20T08:42:20;10.13;;;3.35;;
72493;SDS011;60520;49.182;-0.348;2023-05-20T08:44:49;8.75;;;3.45;;
72493;SDS011;60520;49.182;-0.348;2023-05-20T08:47:17;16.10;;;4.22;;
72493;SDS011;60520;49.182;-0.348;2023-05-20T08:49:44;12.23;;;3.90;;
72493;SDS011;60520;49.182;-0.348;2023-05-20T08:52:13;11.55;;;4.03;;
72493;SDS011;60520;49.182;-0.348;2023-05-20T08:54:42;8.55;;;3.80;;
72493;SDS011;60520;49.182;-0.348;2023-05-20T08:57:10;10.63;;;3.63;;
72493;SDS011;60520;49.182;-0.348;2023-05-20T08:59:38;12.15;;;4.15;;
72493;SDS011;60520;49.182;-0.348;2023-05-20T09:02:05;19.25;;;3.75;;
72493;SDS011;60520;49.182;-0.348;2023-05-20T09:04:33;10.23;;;3.92;;
72493;SDS011;60520;49.182;-0.348;2023-05-20T09:07:00;11.65;;;4.18;;
72493;SDS011;60520;49.182;-0.348;2023-05-20T09:09:29;16.95;;;4.78;;
72493;SDS011;60520;49.182;-0.348;2023-05-20T09:11:57;12.90;;;3.63;;
72493;SDS011;60520;49.182;-0.348;2023-05-20T09:14:25;12.05;;;4.20;;
72493;SDS011;60520;49.182;-0.348;2023-05-20T09:16:52;10.85;;;3.78;;
72493;SDS011;60520;49.182;-0.348;2023-05-20T09:19:20;15.05;;;4.05;;
72493;SDS011;60520;49.182;-0.348;2023-05-20T09:21:49;11.73;;;3.80;;
72493;SDS011;60520;49.182;-0.348;2023-05-20T09:24:18;9.80;;;4.03;;
72493;SDS011;60520;49.182;-0.348;2023-05-20T09:26:46;14.25;;;4.32;;
72493;SDS011;60520;49.182;-0.348;2023-05-20T09:29:14;12.65;;;3.70;;
72493;SDS011;60520;49.182;-0.348;2023-05-20T09:31:42;11.95;;;4.07;;
72493;SDS011;60520;49.182;-0.348;2023-05-20T09:34:10;11.38;;;3.80;;
72493;SDS011;60520;49.182;-0.348;2023-05-20T09:36:37;10.80;;;3.67;;
72493;SDS011;60520;49.182;-0.348;2023-05-20T09:39:05;11.45;;;3.72;;
72493;SDS011;60520;49.182;-0.348;2023-05-20T09:41:36;14.32;;;3.92;;
72493;SDS011;60520;49.182;-0.348;2023-05-20T09:44:05;10.45;;;3.90;;
72493;SDS011;60520;49.182;-0.348;2023-05-20T09:46:33;12.85;;;4.03;;
72493;SDS011;60520;49.182;-0.348;2023-05-20T09:49:00;10.00;;;3.88;;
72493;SDS011;60520;49.182;-0.348;2023-05-20T09:51:27;9.75;;;3.53;;
72493;SDS011;60520;49.182;-0.348;2023-05-20T09:53:56;10.63;;;4.00;;
72493;SDS011;60520;49.182;-0.348;2023-05-20T09:56:23;8.95;;;3.83;;
72493;SDS011;60520;49.182;-0.348;2023-05-20T09:58:51;11.52;;;4.03;;
72493;SDS011;60520;49.182;-0.348;2023-05-20T10:01:23;10.05;;;3.85;;
72493;SDS011;60520;49.182;-0.348;2023-05-20T10:03:50;10.30;;;3.65;;
72493;SDS011;60520;49.182;-0.348;2023-05-20T10:06:26;12.90;;;3.75;;
72493;SDS011;60520;49.182;-0.348;2023-05-20T10:09:08;13.18;;;4.00;;
72493;SDS011;60520;49.182;-0.348;2023-05-20T10:11:39;11.82;;;3.78;;
72493;SDS011;60520;49.182;-0.348;2023-05-20T10:14:14;26.88;;;4.78;;
72493;SDS011;60520;49.182;-0.348;2023-05-20T10:16:46;15.48;;;4.75;;
72493;SDS011;60520;49.182;-0.348;2023-05-20T10:19:19;15.98;;;4.20;;
72493;SDS011;60520;49.182;-0.348;2023-05-20T10:21:55;18.13;;;4.32;;
72493;SDS011;60520;49.182;-0.348;2023-05-20T10:24:28;20.35;;;4.38;;
72493;SDS011;60520;49.182;-0.348;2023-05-20T10:26:56;12.02;;;3.47;;
72493;SDS011;60520;49.182;-0.348;2023-05-20T10:29:23;11.95;;;3.95;;
72493;SDS011;60520;49.182;-0.348;2023-05-20T10:31:51;11.85;;;3.72;;
72493;SDS011;60520;49.182;-0.348;2023-05-20T10:34:19;10.13;;;3.90;;
72493;SDS011;60520;49.182;-0.348;2023-05-20T10:36:56;11.05;;;3.42;;
72493;SDS011;60520;49.182;-0.348;2023-05-20T10:39:24;10.00;;;3.97;;
72493;SDS011;60520;49.182;-0.348;2023-05-20T10:41:52;12.88;;;4.20;;
72493;SDS011;60520;49.182;-0.348;2023-05-20T10:44:19;12.02;;;3.92;;
72493;SDS011;60520;49.182;-0.348;2023-05-20T10:46:46;13.30;;;3.58;;
72493;SDS011;60520;49.182;-0.348;2023-05-20T10:49:33;6.95;;;3.63;;
72493;SDS011;60520;49.182;-0.348;2023-05-20T10:52:00;7.82;;;3.53;;
72493;SDS011;60520;49.182;-0.348;2023-05-20T10:54:28;12.45;;;3.78;;
72493;SDS011;60520;49.182;-0.348;2023-05-20T10:56:55;12.25;;;3.67;;
72493;SDS011;60520;49.182;-0.348;2023-05-20T10:59:22;11.60;;;3.78;;
72493;SDS011;60520;49.182;-0.348;2023-05-20T11:01:50;10.85;;;3.28;;
72493;SDS011;60520;49.182;-0.348;2023-05-20T11:04:17;13.60;;;3.65;;
72493;SDS011;60520;49.182;-0.348;2023-05-20T11:06:52;12.85;;;3.40;;
72493;SDS011;60520;49.182;-0.348;2023-05-20T11:09:19;11.13;;;3.50;;
72493;SDS011;60520;49.182;-0.348;2023-05-20T11:11:46;8.95;;;3.40;;
72493;SDS011;60520;49.182;-0.348;2023-05-20T11:14:13;8.48;;;3.30;;
72493;SDS011;60520;49.182;-0.348;2023-05-20T11:16:42;10.38;;;3.75;;
72493;SDS011;60520;49.182;-0.348;2023-05-20T11:19:13;10.68;;;3.70;;
72493;SDS011;60520;49.182;-0.348;2023-05-20T11:21:41;10.10;;;3.25;;
72493;SDS011;60520;49.182;-0.348;2023-05-20T11:24:10;12.45;;;3.60;;
72493;SDS011;60520;49.182;-0.348;2023-05-20T11:26:37;8.93;;;3.25;;
72493;SDS011;60520;49.182;-0.348;2023-05-20T11:29:04;14.55;;;3.60;;
72493;SDS011;60520;49.182;-0.348;2023-05-20T11:31:32;10.45;;;3.28;;
72493;SDS011;60520;49.182;-0.348;2023-05-20T11:33:59;8.98;;;3.50;;
72493;SDS011;60520;49.182;-0.348;2023-05-20T11:36:28;8.98;;;3.53;;
72493;SDS011;60520;49.182;-0.348;2023-05-20T11:38:56;10.32;;;3.25;;
72493;SDS011;60520;49.182;-0.348;2023-05-20T11:41:25;9.05;;;3.50;;
72493;SDS011;60520;49.182;-0.348;2023-05-20T11:43:56;10.30;;;3.28;;
72493;SDS011;60520;49.182;-0.348;2023-05-20T11:46:23;8.18;;;3.03;;
72493;SDS011;60520;49.182;-0.348;2023-05-20T11:48:51;8.65;;;3.47;;
72493;SDS011;60520;49.182;-0.348;2023-05-20T11:51:21;10.73;;;3.60;;
72493;SDS011;60520;49.182;-0.348;2023-05-20T11:53:49;18.70;;;3.60;;
72493;SDS011;60520;49.182;-0.348;2023-05-20T11:56:16;11.57;;;3.45;;
72493;SDS011;60520;49.182;-0.348;2023-05-20T11:58:45;14.25;;;3.40;;
72493;SDS011;60520;49.182;-0.348;2023-05-20T12:01:15;13.65;;;3.50;;
72493;SDS011;60520;49.182;-0.348;2023-05-20T12:03:42;15.75;;;3.97;;
72493;SDS011;60520;49.182;-0.348;2023-05-20T12:06:10;24.52;;;4.30;;
72493;SDS011;60520;49.182;-0.348;2023-05-20T12:08:38;14.70;;;3.65;;
72493;SDS011;60520;49.182;-0.348;2023-05-20T12:11:05;18.88;;;4.05;;
72493;SDS011;60520;49.182;-0.348;2023-05-20T12:13:32;16.73;;;4.32;;
72493;SDS011;60520;49.182;-0.348;2023-05-20T12:16:01;22.80;;;7.93;;
72493;SDS011;60520;49.182;-0.348;2023-05-20T12:18:29;17.88;;;5.13;;
72493;SDS011;60520;49.182;-0.348;2023-05-20T12:20:56;24.35;;;5.53;;
72493;SDS011;60520;49.182;-0.348;2023-05-20T12:23:23;21.17;;;6.00;;
72493;SDS011;60520;49.182;-0.348;2023-05-20T12:25:51;19.42;;;4.82;;
72493;SDS011;60520;49.182;-0.348;2023-05-20T12:28:18;20.30;;;4.30;;
72493;SDS011;60520;49.182;-0.348;2023-05-20T12:30:45;22.42;;;4.88;;
72493;SDS011;60520;49.182;-0.348;2023-05-20T12:33:14;23.30;;;4.65;;
72493;SDS011;60520;49.182;-0.348;2023-05-20T12:35:41;18.58;;;4.32;;
72493;SDS011;60520;49.182;-0.348;2023-05-20T12:38:10;18.42;;;4.57;;
72493;SDS011;60520;49.182;-0.348;2023-05-20T12:40:37;31.17;;;5.10;;
72493;SDS011;60520;49.182;-0.348;2023-05-20T12:43:04;34.88;;;5.43;;
72493;SDS011;60520;49.182;-0.348;2023-05-20T12:45:31;26.50;;;4.65;;
72493;SDS011;60520;49.182;-0.348;2023-05-20T12:47:59;20.95;;;4.30;;
72493;SDS011;60520;49.182;-0.348;2023-05-20T12:50:27;17.48;;;4.68;;
72493;SDS011;60520;49.182;-0.348;2023-05-20T12:52:54;16.92;;;4.22;;
72493;SDS011;60520;49.182;-0.348;2023-05-20T12:55:21;17.38;;;3.80;;
72493;SDS011;60520;49.182;-0.348;2023-05-20T12:57:49;18.13;;;3.97;;
72493;SDS011;60520;49.182;-0.348;2023-05-20T13:00:16;23.70;;;4.78;;
72493;SDS011;60520;49.182;-0.348;2023-05-20T13:02:43;17.25;;;4.30;;
72493;SDS011;60520;49.182;-0.348;2023-05-20T13:05:10;14.52;;;3.75;;
72493;SDS011;60520;49.182;-0.348;2023-05-20T13:07:39;14.30;;;4.20;;
72493;SDS011;60520;49.182;-0.348;2023-05-20T13:10:06;19.70;;;4.53;;
72493;SDS011;60520;49.182;-0.348;2023-05-20T13:12:35;23.38;;;4.43;;
72493;SDS011;60520;49.182;-0.348;2023-05-20T13:15:02;75.75;;;8.32;;
72493;SDS011;60520;49.182;-0.348;2023-05-20T13:17:29;23.17;;;4.70;;
72493;SDS011;60520;49.182;-0.348;2023-05-20T13:19:57;21.67;;;4.40;;
72493;SDS011;60520;49.182;-0.348;2023-05-20T13:22:24;28.25;;;4.40;;
72493;SDS011;60520;49.182;-0.348;2023-05-20T13:24:52;27.52;;;4.32;;
72493;SDS011;60520;49.182;-0.348;2023-05-20T13:27:19;28.90;;;5.82;;
72493;SDS011;60520;49.182;-0.348;2023-05-20T13:29:47;39.10;;;5.18;;
72493;SDS011;60520;49.182;-0.348;2023-05-20T13:32:14;32.03;;;4.22;;
72493;SDS011;60520;49.182;-0.348;2023-05-20T13:34:41;24.23;;;4.25;;
72493;SDS011;60520;49.182;-0.348;2023-05-20T13:37:08;22.70;;;4.55;;
72493;SDS011;60520;49.182;-0.348;2023-05-20T13:39:35;29.58;;;4.40;;
72493;SDS011;60520;49.182;-0.348;2023-05-20T13:42:04;16.50;;;3.80;;
72493;SDS011;60520;49.182;-0.348;2023-05-20T13:44:31;20.17;;;3.78;;
72493;SDS011;60520;49.182;-0.348;2023-05-20T13:46:58;29.83;;;4.22;;
72493;SDS011;60520;49.182;-0.348;2023-05-20T13:49:25;23.35;;;3.95;;
72493;SDS011;60520;49.182;-0.348;2023-05-20T13:51:52;16.77;;;3.85;;
72493;SDS011;60520;49.182;-0.348;2023-05-20T13:54:19;27.77;;;4.57;;
72493;SDS011;60520;49.182;-0.348;2023-05-20T13:56:46;15.43;;;3.35;;
72493;SDS011;60520;49.182;-0.348;2023-05-20T13:59:15;13.48;;;3.35;;
72493;SDS011;60520;49.182;-0.348;2023-05-20T14:01:42;16.42;;;3.72;;
72493;SDS011;60520;49.182;-0.348;2023-05-20T14:04:10;16.48;;;3.58;;
72493;SDS011;60520;49.182;-0.348;2023-05-20T14:06:37;18.58;;;3.55;;
72493;SDS011;60520;49.182;-0.348;2023-05-20T14:09:05;15.18;;;3.60;;
72493;SDS011;60520;49.182;-0.348;2023-05-20T14:11:33;18.98;;;3.83;;
72493;SDS011;60520;49.182;-0.348;2023-05-20T14:14:00;21.45;;;4.43;;
72493;SDS011;60520;49.182;-0.348;2023-05-20T14:16:28;13.57;;;3.15;;
72493;SDS011;60520;49.182;-0.348;2023-05-20T14:18:55;16.30;;;3.63;;
72493;SDS011;60520;49.182;-0.348;2023-05-20T14:21:22;14.02;;;3.58;;
72493;SDS011;60520;49.182;-0.348;2023-05-20T14:23:50;15.52;;;3.60;;
72493;SDS011;60520;49.182;-0.348;2023-05-20T14:26:17;19.83;;;3.35;;
72493;SDS011;60520;49.182;-0.348;2023-05-20T14:28:44;18.23;;;3.83;;
72493;SDS011;60520;49.182;-0.348;2023-05-20T14:31:11;16.52;;;3.53;;